createdAt,value
2023-05-05T00:00:21.534Z,7.87
2023-05-05T00:02:23.517Z,8.77
2023-05-05T00:04:25.586Z,8.17
2023-05-05T00:06:31.350Z,10.00
2023-05-05T00:08:33.408Z,6.63
2023-05-05T00:10:35.450Z,11.63
2023-05-05T00:12:37.713Z,15.77
2023-05-05T00:14:39.767Z,6.60
2023-05-05T00:16:41.818Z,23.53
2023-05-05T00:18:44.709Z,8.43
2023-05-05T00:20:47.629Z,7.73
2023-05-05T00:22:50.246Z,10.10
2023-05-05T00:24:52.222Z,8.83
2023-05-05T00:26:54.215Z,17.73
2023-05-05T00:28:56.395Z,5.77
2023-05-05T00:30:58.571Z,7.60
2023-05-05T00:33:00.740Z,7.67
2023-05-05T00:35:02.810Z,11.03
2023-05-05T00:37:04.904Z,9.43
2023-05-05T00:39:07.062Z,12.47
2023-05-05T00:41:09.047Z,9.80
2023-05-05T00:43:11.129Z,8.30
2023-05-05T00:45:15.478Z,9.70
2023-05-05T00:47:17.672Z,6.00
2023-05-05T00:49:19.764Z,7.57
2023-05-05T00:51:22.156Z,7.10
2023-05-05T00:53:25.296Z,9.00
2023-05-05T00:55:28.987Z,6.90
2023-05-05T00:57:32.414Z,8.37
2023-05-05T00:59:35.310Z,6.93
2023-05-05T01:01:37.416Z,6.60
2023-05-05T01:03:41.573Z,5.37
2023-05-05T01:05:49.932Z,7.87
2023-05-05T01:08:19.543Z,10.40
2023-05-05T01:10:33.721Z,6.53
2023-05-05T01:12:45.412Z,7.70
2023-05-05T01:14:55.003Z,6.77
2023-05-05T01:16:59.627Z,8.90
2023-05-05T01:19:04.451Z,11.90
2023-05-05T01:21:34.617Z,7.30
2023-05-05T01:23:45.654Z,8.83
2023-05-05T01:26:09.063Z,7.83
2023-05-05T01:28:29.756Z,8.03
2023-05-05T01:31:03.333Z,5.73
2023-05-05T01:33:07.830Z,11.17
2023-05-05T01:35:19.863Z,7.80
2023-05-05T01:37:27.471Z,6.00
2023-05-05T01:39:31.892Z,9.23
2023-05-05T01:41:41.234Z,8.33
2023-05-05T01:43:46.041Z,4.87
2023-05-05T01:45:48.873Z,7.30
2023-05-05T01:47:52.779Z,6.23
2023-05-05T01:49:54.892Z,12.40
2023-05-05T01:51:57.771Z,8.00
2023-05-05T01:54:01.206Z,5.97
2023-05-05T01:56:04.071Z,9.93
2023-05-05T01:58:07.401Z,7.00
2023-05-05T02:00:10.163Z,7.17
2023-05-05T02:02:21.554Z,7.80
2023-05-05T02:04:24.344Z,5.83
2023-05-05T02:06:28.281Z,11.67
2023-05-05T02:08:31.060Z,7.57
2023-05-05T02:10:33.357Z,7.10
2023-05-05T02:12:37.502Z,6.43
2023-05-05T02:14:40.807Z,7.87
2023-05-05T02:16:43.018Z,7.17
2023-05-05T02:18:46.491Z,10.27
2023-05-05T02:20:48.816Z,11.13
2023-05-05T02:22:51.265Z,12.00
2023-05-05T02:24:54.104Z,6.70
2023-05-05T02:26:58.385Z,7.83
2023-05-05T02:29:04.241Z,9.30
2023-05-05T02:31:07.688Z,8.53
2023-05-05T02:33:11.498Z,8.50
2023-05-05T02:35:22.886Z,6.57
2023-05-05T02:37:27.782Z,7.93
2023-05-05T02:39:38.427Z,9.63
2023-05-05T02:41:47.443Z,9.40
2023-05-05T02:43:58.012Z,9.47
2023-05-05T02:46:01.253Z,7.87
2023-05-05T02:48:04.998Z,6.17
2023-05-05T02:50:11.669Z,11.57
2023-05-05T02:52:19.615Z,9.07
2023-05-05T02:54:22.303Z,7.63
2023-05-05T02:56:41.046Z,8.77
2023-05-05T02:58:53.986Z,8.73
2023-05-05T03:01:08.660Z,13.27
2023-05-05T03:03:19.043Z,12.90
2023-05-05T03:05:25.514Z,8.77
2023-05-05T03:07:31.834Z,10.40
2023-05-05T03:09:40.032Z,8.93
2023-05-05T03:11:52.510Z,7.60
2023-05-05T03:14:22.772Z,11.60
2023-05-05T03:16:26.491Z,8.07
2023-05-05T03:18:29.901Z,7.10
2023-05-05T03:20:35.294Z,9.40
2023-05-05T03:22:42.026Z,7.83
2023-05-05T03:24:51.563Z,5.93
2023-05-05T03:26:57.806Z,10.53
2023-05-05T03:29:06.878Z,12.70
2023-05-05T03:31:11.301Z,14.37
2023-05-05T03:33:16.013Z,8.00
2023-05-05T03:35:18.194Z,8.97
2023-05-05T03:37:20.263Z,10.00
2023-05-05T03:39:22.335Z,11.20
2023-05-05T03:41:25.891Z,9.60
2023-05-05T03:43:29.010Z,6.47
2023-05-05T03:45:31.113Z,9.33
2023-05-05T03:47:33.166Z,8.57
2023-05-05T03:49:35.246Z,8.67
2023-05-05T03:51:38.020Z,11.93
2023-05-05T03:53:40.056Z,11.03
2023-05-05T03:55:42.947Z,8.33
2023-05-05T03:57:46.225Z,8.27
2023-05-05T03:59:48.315Z,8.20
2023-05-05T04:01:51.231Z,7.80
2023-05-05T04:03:53.334Z,12.67
2023-05-05T04:05:55.910Z,15.83
2023-05-05T04:07:58.440Z,8.73
2023-05-05T04:10:00.985Z,8.77
2023-05-05T04:12:03.214Z,8.57
2023-05-05T04:14:05.697Z,9.60
2023-05-05T04:16:09.009Z,9.50
2023-05-05T04:18:12.512Z,8.90
2023-05-05T04:20:14.878Z,8.50
2023-05-05T04:22:16.967Z,6.20
2023-05-05T04:24:23.120Z,9.63
2023-05-05T04:26:25.279Z,7.00
2023-05-05T04:28:27.712Z,9.30
2023-05-05T04:30:29.848Z,10.73
2023-05-05T04:32:31.906Z,8.40
2023-05-05T04:34:34.459Z,7.57
2023-05-05T04:36:36.512Z,9.17
2023-05-05T04:38:39.379Z,11.90
2023-05-05T04:40:41.919Z,7.10
2023-05-05T04:42:45.556Z,13.67
2023-05-05T04:44:47.742Z,8.87
2023-05-05T04:46:50.155Z,10.10
2023-05-05T04:48:52.585Z,10.03
2023-05-05T04:50:54.660Z,14.47
2023-05-05T04:52:56.831Z,9.27
2023-05-05T04:54:59.808Z,10.20
2023-05-05T04:57:02.272Z,10.27
2023-05-05T04:59:04.296Z,17.90
2023-05-05T05:01:06.521Z,9.50
2023-05-05T05:03:08.715Z,13.67
2023-05-05T05:05:10.847Z,7.77
2023-05-05T05:07:15.056Z,6.67
2023-05-05T05:09:17.080Z,8.83
2023-05-05T05:11:19.107Z,13.60
2023-05-05T05:13:21.275Z,9.47
2023-05-05T05:15:23.514Z,7.37
2023-05-05T05:17:26.858Z,9.83
2023-05-05T05:19:29.091Z,10.30
2023-05-05T05:21:31.740Z,15.00
2023-05-05T05:23:34.529Z,10.33
2023-05-05T05:25:36.721Z,9.43
2023-05-05T05:27:38.829Z,9.87
2023-05-05T05:29:40.999Z,7.17
2023-05-05T05:31:43.149Z,9.90
2023-05-05T05:33:45.244Z,6.30
2023-05-05T05:35:49.993Z,7.00
2023-05-05T05:37:54.637Z,8.67
2023-05-05T05:39:56.985Z,7.50
2023-05-05T05:42:00.762Z,9.90
2023-05-05T05:44:02.901Z,11.37
2023-05-05T05:46:06.946Z,9.60
2023-05-05T05:48:11.473Z,7.80
2023-05-05T05:50:13.861Z,10.90
2023-05-05T05:52:16.314Z,7.03
2023-05-05T05:54:18.637Z,7.90
2023-05-05T05:56:21.584Z,6.43
2023-05-05T05:58:23.716Z,6.57
2023-05-05T06:00:26.123Z,8.20
2023-05-05T06:02:35.149Z,10.30
2023-05-05T06:04:37.521Z,9.27
2023-05-05T06:06:39.716Z,10.63
2023-05-05T06:08:41.801Z,9.60
2023-05-05T06:10:43.901Z,10.47
2023-05-05T06:12:50.633Z,8.97
2023-05-05T06:14:53.658Z,7.30
2023-05-05T06:16:55.956Z,5.30
2023-05-05T06:19:00.968Z,6.47
2023-05-05T06:21:03.168Z,10.37
2023-05-05T06:23:06.633Z,7.43
2023-05-05T06:25:11.951Z,8.00
2023-05-05T06:27:13.996Z,6.20
2023-05-05T06:29:16.142Z,7.27
2023-05-05T06:31:18.413Z,8.10
2023-05-05T06:33:20.572Z,7.80
2023-05-05T06:35:22.668Z,7.10
2023-05-05T06:37:24.726Z,10.97
2023-05-05T06:39:26.783Z,8.13
2023-05-05T06:41:28.884Z,9.73
2023-05-05T06:43:31.191Z,7.03
2023-05-05T06:45:35.845Z,13.93
2023-05-05T06:47:38.128Z,5.53
2023-05-05T06:49:40.352Z,8.40
2023-05-05T06:51:42.957Z,9.00
2023-05-05T06:53:45.409Z,8.97
2023-05-05T06:55:47.580Z,7.40
2023-05-05T06:57:49.619Z,10.47
2023-05-05T06:59:51.928Z,8.83
2023-05-05T07:01:53.940Z,8.27
2023-05-05T07:03:56.213Z,9.33
2023-05-05T07:05:58.234Z,11.23
2023-05-05T07:08:00.472Z,8.03
2023-05-05T07:10:02.672Z,10.30
2023-05-05T07:12:04.838Z,5.53
2023-05-05T07:14:07.143Z,9.43
2023-05-05T07:16:09.398Z,9.60
2023-05-05T07:18:11.697Z,6.90
2023-05-05T07:20:13.913Z,10.30
2023-05-05T07:22:15.968Z,9.20
2023-05-05T07:24:17.990Z,10.47
2023-05-05T07:26:20.074Z,8.07
2023-05-05T07:28:22.434Z,10.23
2023-05-05T07:30:27.388Z,7.23
2023-05-05T07:32:29.438Z,6.10
2023-05-05T07:34:34.398Z,6.93
2023-05-05T07:36:36.745Z,9.47
2023-05-05T07:38:38.921Z,10.10
2023-05-05T07:40:41.071Z,9.67
2023-05-05T07:42:43.192Z,7.27
2023-05-05T07:44:45.277Z,9.40
2023-05-05T07:46:47.535Z,6.30
2023-05-05T07:48:49.553Z,5.07
2023-05-05T07:50:52.562Z,10.10
2023-05-05T07:53:02.537Z,6.90
2023-05-05T07:55:15.569Z,7.87
2023-05-05T07:57:17.661Z,6.60
2023-05-05T07:59:19.785Z,14.83
2023-05-05T08:01:21.802Z,5.67
2023-05-05T08:03:24.881Z,7.40
2023-05-05T08:05:27.152Z,10.20
2023-05-05T08:07:29.106Z,5.73
2023-05-05T08:09:31.218Z,7.00
2023-05-05T08:11:33.376Z,8.00
2023-05-05T08:13:35.743Z,6.43
2023-05-05T08:15:37.956Z,10.13
2023-05-05T08:17:51.665Z,8.30
2023-05-05T08:19:53.792Z,10.93
2023-05-05T08:21:56.226Z,6.00
2023-05-05T08:23:58.416Z,6.93
2023-05-05T08:26:00.766Z,7.37
2023-05-05T08:28:02.811Z,8.00
2023-05-05T08:30:05.641Z,7.97
2023-05-05T08:32:07.718Z,7.70
2023-05-05T08:34:09.876Z,6.17
2023-05-05T08:36:12.608Z,5.07
2023-05-05T08:38:14.723Z,7.80
2023-05-05T08:40:16.698Z,6.17
2023-05-05T08:42:32.795Z,7.53
2023-05-05T08:44:37.962Z,7.17
2023-05-05T08:46:41.271Z,6.83
2023-05-05T08:48:44.664Z,5.07
2023-05-05T08:50:50.121Z,9.73
2023-05-05T08:52:58.386Z,7.30
2023-05-05T08:55:10.429Z,12.13
2023-05-05T08:57:14.405Z,9.20
2023-05-05T08:59:17.104Z,12.53
2023-05-05T09:01:19.402Z,10.10
2023-05-05T09:03:21.644Z,6.23
2023-05-05T09:05:24.496Z,9.93
2023-05-05T09:07:26.553Z,8.70
2023-05-05T09:09:29.363Z,9.33
2023-05-05T09:11:32.616Z,8.70
2023-05-05T09:13:34.852Z,7.60
2023-05-05T09:15:39.058Z,6.33
2023-05-05T09:17:41.873Z,6.10
2023-05-05T09:20:14.435Z,12.23
2023-05-05T09:22:16.704Z,8.17
2023-05-05T09:24:18.941Z,5.90
2023-05-05T09:26:21.128Z,7.23
2023-05-05T09:28:23.331Z,10.60
2023-05-05T09:30:27.095Z,5.90
2023-05-05T09:32:30.695Z,5.67
2023-05-05T09:34:35.029Z,9.63
2023-05-05T09:36:45.596Z,7.47
2023-05-05T09:39:06.420Z,11.53
2023-05-05T09:41:08.655Z,6.50
2023-05-05T09:43:11.085Z,8.97
2023-05-05T09:45:19.376Z,6.33
2023-05-05T09:47:29.495Z,7.40
2023-05-05T09:49:32.358Z,7.80
2023-05-05T09:51:34.544Z,8.87
2023-05-05T09:53:41.550Z,10.53
2023-05-05T09:56:04.097Z,10.73
2023-05-05T09:58:19.527Z,6.23
2023-05-05T10:00:22.237Z,8.90
2023-05-05T10:02:35.585Z,5.37
2023-05-05T10:04:38.179Z,9.10
2023-05-05T10:06:43.733Z,10.93
2023-05-05T10:08:45.823Z,4.47
2023-05-05T10:10:59.598Z,9.83
2023-05-05T10:13:02.253Z,8.37
2023-05-05T10:15:06.097Z,6.03
2023-05-05T10:17:09.447Z,6.73
2023-05-05T10:19:14.313Z,7.20
2023-05-05T10:21:20.242Z,8.40
2023-05-05T10:23:23.993Z,17.60
2023-05-05T10:25:33.331Z,6.83
2023-05-05T10:28:01.495Z,5.67
2023-05-05T10:30:06.160Z,5.87
2023-05-05T10:32:46.681Z,8.03
2023-05-05T10:34:51.420Z,5.33
2023-05-05T10:36:56.370Z,6.50
2023-05-05T10:39:00.154Z,5.00
2023-05-05T10:41:03.313Z,5.10
2023-05-05T10:43:05.545Z,5.00
2023-05-05T10:45:08.540Z,7.63
2023-05-05T10:47:11.080Z,6.77
2023-05-05T10:49:19.797Z,7.90
2023-05-05T10:51:40.344Z,7.97
2023-05-05T10:53:57.430Z,11.63
2023-05-05T10:56:05.881Z,7.00
2023-05-05T10:58:08.091Z,7.03
2023-05-05T11:00:11.007Z,9.07
2023-05-05T11:02:21.987Z,5.10
2023-05-05T11:04:24.213Z,6.50
2023-05-05T11:06:26.390Z,4.43
2023-05-05T11:08:28.716Z,6.20
2023-05-05T11:10:44.474Z,4.13
2023-05-05T11:12:57.870Z,5.70
2023-05-05T11:15:26.236Z,6.70
2023-05-05T11:17:47.742Z,5.10
2023-05-05T11:19:52.241Z,5.97
2023-05-05T11:22:01.862Z,11.17
2023-05-05T11:24:33.527Z,7.63
2023-05-05T11:26:52.377Z,6.40
2023-05-05T11:29:02.407Z,4.77
2023-05-05T11:31:04.619Z,8.37
2023-05-05T11:33:29.163Z,9.03
2023-05-05T11:35:59.767Z,3.60
2023-05-05T11:38:03.771Z,5.00
2023-05-05T11:40:22.185Z,5.07
2023-05-05T11:42:26.133Z,4.67
2023-05-05T11:44:33.101Z,3.93
2023-05-05T11:46:35.354Z,5.53
2023-05-05T11:48:52.002Z,5.40
2023-05-05T11:50:54.514Z,6.37
2023-05-05T11:52:56.762Z,10.23
2023-05-05T11:55:01.439Z,6.03
2023-05-05T11:57:08.625Z,4.43
2023-05-05T11:59:11.302Z,3.80
2023-05-05T12:01:13.821Z,8.53
2023-05-05T12:03:16.129Z,5.27
2023-05-05T12:05:21.488Z,6.97
2023-05-05T12:07:28.474Z,5.53
2023-05-05T12:09:30.860Z,5.20
2023-05-05T12:11:33.217Z,7.53
2023-05-05T12:13:35.603Z,4.83
2023-05-05T12:15:37.829Z,4.77
2023-05-05T12:17:46.204Z,7.53
2023-05-05T12:19:52.600Z,5.27
2023-05-05T12:21:54.828Z,3.90
2023-05-05T12:23:57.157Z,13.83
2023-05-05T12:25:59.339Z,7.10
2023-05-05T12:28:01.522Z,5.70
2023-05-05T12:30:17.818Z,5.33
2023-05-05T12:32:22.121Z,9.63
2023-05-05T12:34:24.470Z,5.50
2023-05-05T12:36:28.128Z,3.50
2023-05-05T12:38:31.032Z,3.27
2023-05-05T12:40:49.093Z,5.50
2023-05-05T12:42:53.744Z,5.30
2023-05-05T12:44:55.928Z,3.87
2023-05-05T12:46:59.262Z,8.40
2023-05-05T12:49:07.962Z,3.00
2023-05-05T12:51:14.720Z,6.80
2023-05-05T12:53:23.918Z,6.40
2023-05-05T12:55:40.114Z,5.13
2023-05-05T12:58:01.511Z,5.83
2023-05-05T13:00:15.418Z,5.33
2023-05-05T13:02:17.717Z,4.67
2023-05-05T13:04:21.387Z,7.57
2023-05-05T13:06:25.041Z,8.30
2023-05-05T13:08:45.406Z,5.40
2023-05-05T13:10:58.294Z,6.00
2023-05-05T13:13:00.561Z,3.87
2023-05-05T13:15:02.730Z,6.07
2023-05-05T13:17:04.968Z,6.60
2023-05-05T13:19:07.171Z,7.00
2023-05-05T13:21:09.389Z,6.43
2023-05-05T13:23:11.483Z,2.70
2023-05-05T13:25:13.704Z,8.77
2023-05-05T13:27:16.431Z,9.93
2023-05-05T13:29:19.079Z,7.30
2023-05-05T13:31:21.394Z,6.60
2023-05-05T13:33:23.602Z,5.83
2023-05-05T13:35:25.915Z,4.20
2023-05-05T13:37:28.096Z,6.10
2023-05-05T13:39:30.259Z,3.70
2023-05-05T13:41:32.503Z,5.90
2023-05-05T13:43:34.758Z,5.57
2023-05-05T13:45:36.972Z,17.23
2023-05-05T13:47:39.130Z,6.93
2023-05-05T13:49:41.363Z,3.87
2023-05-05T13:51:43.617Z,6.37
2023-05-05T13:53:46.752Z,2.50
2023-05-05T13:55:49.569Z,4.17
2023-05-05T13:57:51.802Z,4.03
2023-05-05T13:59:53.936Z,8.70
2023-05-05T14:01:56.114Z,2.40
2023-05-05T14:03:58.497Z,4.13
2023-05-05T14:06:00.973Z,5.93
2023-05-05T14:08:03.484Z,3.83
2023-05-05T14:10:06.443Z,3.90
2023-05-05T14:12:08.672Z,2.40
2023-05-05T14:14:11.357Z,3.10
2023-05-05T14:16:13.789Z,2.60
2023-05-05T14:18:16.168Z,4.20
2023-05-05T14:20:18.351Z,4.67
2023-05-05T14:22:20.582Z,3.43
2023-05-05T14:24:22.746Z,3.63
2023-05-05T14:26:25.677Z,2.97
2023-05-05T14:28:27.949Z,2.90
2023-05-05T14:30:30.226Z,3.20
2023-05-05T14:32:32.666Z,3.03
2023-05-05T14:34:34.885Z,2.30
2023-05-05T14:36:37.160Z,8.87
2023-05-05T14:38:39.569Z,2.93
2023-05-05T14:40:41.991Z,2.83
2023-05-05T14:42:44.258Z,2.37
2023-05-05T14:44:46.827Z,6.50
2023-05-05T14:46:50.473Z,9.43
2023-05-05T14:48:53.417Z,4.47
2023-05-05T14:50:55.712Z,4.30
2023-05-05T14:52:58.000Z,5.30
2023-05-05T14:55:00.157Z,3.33
2023-05-05T14:57:02.494Z,3.20
2023-05-05T14:59:04.736Z,6.60
2023-05-05T15:01:07.316Z,6.60
2023-05-05T15:03:09.703Z,3.43
2023-05-05T15:05:12.131Z,5.80
2023-05-05T15:07:14.456Z,8.40
2023-05-05T15:09:18.159Z,4.83
2023-05-05T15:11:20.377Z,6.50
2023-05-05T15:13:22.626Z,3.63
2023-05-05T15:15:24.838Z,5.27
2023-05-05T15:17:27.125Z,5.33
2023-05-05T15:19:29.600Z,7.07
2023-05-05T15:21:31.939Z,5.87
2023-05-05T15:23:34.211Z,5.40
2023-05-05T15:25:36.622Z,7.20
2023-05-05T15:27:39.724Z,7.63
2023-05-05T15:29:41.981Z,6.53
2023-05-05T15:31:44.249Z,5.37
2023-05-05T15:33:48.608Z,5.73
2023-05-05T15:35:50.867Z,6.23
2023-05-05T15:37:55.946Z,8.30
2023-05-05T15:39:58.461Z,8.77
2023-05-05T15:42:03.681Z,7.90
2023-05-05T15:44:05.957Z,3.40
2023-05-05T15:46:08.177Z,8.93
2023-05-05T15:48:10.578Z,4.70
2023-05-05T15:50:12.805Z,4.30
2023-05-05T15:52:15.133Z,9.90
2023-05-05T15:54:17.297Z,5.00
2023-05-05T15:56:19.763Z,6.90
2023-05-05T15:58:21.934Z,12.80
2023-05-05T16:00:24.193Z,5.07
2023-05-05T16:02:26.488Z,7.10
2023-05-05T16:04:28.704Z,2.63
2023-05-05T16:06:30.950Z,3.50
2023-05-05T16:08:33.223Z,4.90
2023-05-05T16:10:36.372Z,4.23
2023-05-05T16:12:38.543Z,5.37
2023-05-05T16:14:40.812Z,5.00
2023-05-05T16:16:43.950Z,2.80
2023-05-05T16:18:46.166Z,7.80
2023-05-05T16:20:48.317Z,6.63
2023-05-05T16:22:50.451Z,3.00
2023-05-05T16:24:52.574Z,6.60
2023-05-05T16:26:54.752Z,7.67
2023-05-05T16:28:56.971Z,6.87
2023-05-05T16:30:59.140Z,8.80
2023-05-05T16:33:01.310Z,3.33
2023-05-05T16:35:03.844Z,5.70
2023-05-05T16:37:06.052Z,6.90
2023-05-05T16:39:08.359Z,5.77
2023-05-05T16:41:11.188Z,11.70
2023-05-05T16:43:13.403Z,8.90
2023-05-05T16:45:15.680Z,13.20
2023-05-05T16:47:17.811Z,6.63
2023-05-05T16:49:19.997Z,10.93
2023-05-05T16:51:22.163Z,6.17
2023-05-05T16:53:24.722Z,5.83
2023-05-05T16:55:26.950Z,7.80
2023-05-05T16:57:29.128Z,8.80
2023-05-05T16:59:31.687Z,8.60
2023-05-05T17:01:35.148Z,5.50
2023-05-05T17:03:38.300Z,8.80
2023-05-05T17:05:40.574Z,7.03
2023-05-05T17:07:42.742Z,13.63
2023-05-05T17:09:45.008Z,10.53
2023-05-05T17:11:47.135Z,6.03
2023-05-05T17:13:49.248Z,6.60
2023-05-05T17:15:51.765Z,6.10
2023-05-05T17:17:54.323Z,7.83
2023-05-05T17:19:56.673Z,8.00
2023-05-05T17:21:58.904Z,5.70
2023-05-05T17:24:01.489Z,8.73
2023-05-05T17:26:05.238Z,6.20
2023-05-05T17:28:07.571Z,10.73
2023-05-05T17:30:10.287Z,4.87
2023-05-05T17:32:12.635Z,7.30
2023-05-05T17:34:14.883Z,6.27
2023-05-05T17:36:17.087Z,5.90
2023-05-05T17:38:19.261Z,7.03
2023-05-05T17:40:21.942Z,6.63
2023-05-05T17:42:26.985Z,5.03
2023-05-05T17:44:29.157Z,5.60
2023-05-05T17:46:31.788Z,4.60
2023-05-05T17:48:33.979Z,11.57
2023-05-05T17:50:36.373Z,6.90
2023-05-05T17:52:40.393Z,8.90
2023-05-05T17:54:42.762Z,7.00
2023-05-05T17:56:44.994Z,7.57
2023-05-05T17:58:48.232Z,6.87
2023-05-05T18:00:50.978Z,6.87
2023-05-05T18:02:53.192Z,6.10
2023-05-05T18:04:55.690Z,7.83
2023-05-05T18:06:57.854Z,6.10
2023-05-05T18:09:00.047Z,7.93
2023-05-05T18:11:02.269Z,8.40
2023-05-05T18:13:04.473Z,7.10
2023-05-05T18:15:07.698Z,6.97
2023-05-05T18:17:09.951Z,7.33
2023-05-05T18:19:12.110Z,9.00
2023-05-05T18:21:14.400Z,12.10
2023-05-05T18:23:16.544Z,6.87
2023-05-05T18:25:19.218Z,8.00
2023-05-05T18:27:21.346Z,7.53
2023-05-05T18:29:23.461Z,7.10
2023-05-05T18:31:27.311Z,7.27
2023-05-05T18:33:29.477Z,14.50
2023-05-05T18:35:31.768Z,11.27
2023-05-05T18:37:34.103Z,10.00
2023-05-05T18:39:36.287Z,5.23
2023-05-05T18:41:38.490Z,6.77
2023-05-05T18:43:41.088Z,5.70
2023-05-05T18:45:43.328Z,7.03
2023-05-05T18:47:45.532Z,6.60
2023-05-05T18:49:47.934Z,9.80
2023-05-05T18:51:50.098Z,6.30
2023-05-05T18:53:52.358Z,6.27
2023-05-05T18:55:54.478Z,6.17
2023-05-05T18:57:56.675Z,9.60
2023-05-05T18:59:58.896Z,8.93
2023-05-05T19:02:01.210Z,7.90
2023-05-05T19:04:03.564Z,7.93
2023-05-05T19:06:06.661Z,7.80
2023-05-05T19:08:09.048Z,6.80
2023-05-05T19:10:11.863Z,7.33
2023-05-05T19:12:14.060Z,7.57
2023-05-05T19:14:17.706Z,8.10
2023-05-05T19:16:20.198Z,8.30
2023-05-05T19:18:24.032Z,6.70
2023-05-05T19:20:27.147Z,8.40
2023-05-05T19:22:29.368Z,8.50
2023-05-05T19:24:31.888Z,8.20
2023-05-05T19:26:34.103Z,9.33
2023-05-05T19:28:36.368Z,13.10
2023-05-05T19:30:38.636Z,12.20
2023-05-05T19:32:40.994Z,7.40
2023-05-05T19:34:43.860Z,8.90
2023-05-05T19:36:46.110Z,6.60
2023-05-05T19:38:48.289Z,6.20
2023-05-05T19:40:51.113Z,9.03
2023-05-05T19:42:53.365Z,9.87
2023-05-05T19:44:55.604Z,9.70
2023-05-05T19:46:57.761Z,10.97
2023-05-05T19:49:00.027Z,16.90
2023-05-05T19:51:02.322Z,10.40
2023-05-05T19:53:04.797Z,13.73
2023-05-05T19:55:07.910Z,9.13
2023-05-05T19:57:10.110Z,11.27
2023-05-05T19:59:12.315Z,10.67
2023-05-05T20:01:14.540Z,11.20
2023-05-05T20:03:16.914Z,13.43
2023-05-05T20:05:19.138Z,10.83
2023-05-05T20:07:21.346Z,10.53
2023-05-05T20:09:23.509Z,12.23
2023-05-05T20:11:25.973Z,10.30
2023-05-05T20:13:34.382Z,12.87
2023-05-05T20:15:36.710Z,11.00
2023-05-05T20:17:39.056Z,14.13
2023-05-05T20:19:41.225Z,9.83
2023-05-05T20:21:43.348Z,11.43
2023-05-05T20:23:46.482Z,12.97
2023-05-05T20:25:48.767Z,14.33
2023-05-05T20:27:51.045Z,10.63
2023-05-05T20:29:53.197Z,14.30
2023-05-05T20:31:55.610Z,14.23
2023-05-05T20:33:57.964Z,10.20
2023-05-05T20:36:00.325Z,14.93
2023-05-05T20:38:04.622Z,11.47
2023-05-05T20:40:07.781Z,14.73
2023-05-05T20:42:10.882Z,14.17
2023-05-05T20:44:13.090Z,16.60
2023-05-05T20:46:16.480Z,11.13
2023-05-05T20:48:18.741Z,18.10
2023-05-05T20:50:21.100Z,18.23
2023-05-05T20:52:23.275Z,16.13
2023-05-05T20:54:25.438Z,12.47
2023-05-05T20:56:27.645Z,18.43
2023-05-05T20:58:30.252Z,17.57
2023-05-05T21:00:32.416Z,14.13
2023-05-05T21:02:34.986Z,13.50
2023-05-05T21:04:37.293Z,12.13
2023-05-05T21:06:39.491Z,17.57
2023-05-05T21:08:41.780Z,16.33
2023-05-05T21:10:43.986Z,12.60
2023-05-05T21:12:46.288Z,17.70
2023-05-05T21:14:48.473Z,15.17
2023-05-05T21:16:50.736Z,18.57
2023-05-05T21:18:52.958Z,22.40
2023-05-05T21:20:55.154Z,19.10
2023-05-05T21:22:57.420Z,16.40
2023-05-05T21:25:15.685Z,13.87
2023-05-05T21:27:18.057Z,19.13
2023-05-05T21:29:20.377Z,23.73
2023-05-05T21:31:22.805Z,16.53
2023-05-05T21:33:25.063Z,21.00
2023-05-05T21:35:27.251Z,18.40
2023-05-05T21:37:29.499Z,21.87
2023-05-05T21:39:33.157Z,15.30
2023-05-05T21:41:35.472Z,14.87
2023-05-05T21:43:37.620Z,15.83
2023-05-05T21:45:40.672Z,17.80
2023-05-05T21:47:43.052Z,18.27
2023-05-05T21:49:45.436Z,14.37
2023-05-05T21:51:47.607Z,22.40
2023-05-05T21:53:49.792Z,18.23
2023-05-05T21:55:52.078Z,17.07
2023-05-05T21:57:54.257Z,18.80
2023-05-05T21:59:56.390Z,17.13
2023-05-05T22:01:58.753Z,20.90
2023-05-05T22:04:01.327Z,16.30
2023-05-05T22:06:03.855Z,20.50
2023-05-05T22:08:06.090Z,15.53
2023-05-05T22:10:09.046Z,17.10
2023-05-05T22:12:11.489Z,16.43
2023-05-05T22:14:13.672Z,17.23
2023-05-05T22:16:18.913Z,16.73
2023-05-05T22:18:21.145Z,15.10
2023-05-05T22:20:23.432Z,22.10
2023-05-05T22:22:26.241Z,15.30
2023-05-05T22:24:29.654Z,20.60
2023-05-05T22:26:31.928Z,18.27
2023-05-05T22:28:34.137Z,12.87
2023-05-05T22:30:36.326Z,20.07
2023-05-05T22:32:38.728Z,20.33
2023-05-05T22:34:40.879Z,15.73
2023-05-05T22:36:43.045Z,20.03
2023-05-05T22:38:45.075Z,19.47
2023-05-05T22:40:47.345Z,13.37
2023-05-05T22:42:49.421Z,15.70
2023-05-05T22:44:51.453Z,19.33
2023-05-05T22:46:53.502Z,16.80
2023-05-05T22:48:55.639Z,17.13
2023-05-05T22:50:57.791Z,17.90
2023-05-05T22:52:59.853Z,16.30
2023-05-05T22:55:02.268Z,15.33
2023-05-05T22:57:04.267Z,20.20
2023-05-05T22:59:06.882Z,22.00
2023-05-05T23:01:09.312Z,18.47
2023-05-05T23:03:11.362Z,16.23
2023-05-05T23:05:13.299Z,16.50
2023-05-05T23:07:15.516Z,18.63
2023-05-05T23:09:17.974Z,17.73
2023-05-05T23:11:19.993Z,16.00
2023-05-05T23:13:22.082Z,16.20
2023-05-05T23:15:25.001Z,24.47
2023-05-05T23:17:27.091Z,14.47
2023-05-05T23:19:32.148Z,15.30
2023-05-05T23:21:41.882Z,15.53
2023-05-05T23:23:51.728Z,15.00
2023-05-05T23:25:53.864Z,14.90
2023-05-05T23:27:55.956Z,14.60
2023-05-05T23:29:57.959Z,18.23
2023-05-05T23:31:59.916Z,18.40
2023-05-05T23:34:01.936Z,24.60
2023-05-05T23:36:04.532Z,13.40
2023-05-05T23:38:06.759Z,16.13
2023-05-05T23:40:09.231Z,16.27
2023-05-05T23:42:11.222Z,21.90
2023-05-05T23:44:13.301Z,17.97
2023-05-05T23:46:15.654Z,13.90
2023-05-05T23:48:17.690Z,18.83
2023-05-05T23:50:19.866Z,18.43
2023-05-05T23:52:22.568Z,15.67
2023-05-05T23:54:24.574Z,14.10
2023-05-05T23:56:26.903Z,17.40
2023-05-05T23:58:28.944Z,14.20
